createdAt,value
2022-08-07T00:00:39.973Z,22.48
2022-08-07T00:03:11.747Z,22.45
2022-08-07T00:05:41.614Z,22.43
2022-08-07T00:08:10.079Z,22.46
2022-08-07T00:10:48.153Z,22.43
2022-08-07T00:13:25.757Z,22.46
2022-08-07T00:15:55.246Z,22.48
2022-08-07T00:18:25.684Z,22.53
2022-08-07T00:21:01.360Z,22.55
2022-08-07T00:23:31.295Z,22.56
2022-08-07T00:26:13.383Z,22.56
2022-08-07T00:28:55.462Z,22.58
2022-08-07T00:31:38.118Z,22.59
2022-08-07T00:34:09.543Z,22.64
2022-08-07T00:36:43.118Z,22.62
2022-08-07T00:39:17.168Z,22.61
2022-08-07T00:42:01.665Z,22.64
2022-08-07T00:44:33.524Z,22.64
2022-08-07T00:47:02.617Z,22.64
2022-08-07T00:50:20.697Z,22.65
2022-08-07T00:52:19.988Z,22.60
2022-08-07T00:54:53.353Z,22.51
2022-08-07T00:57:25.806Z,22.48
2022-08-07T00:59:54.580Z,22.45
2022-08-07T01:02:28.609Z,22.46
2022-08-07T01:04:58.637Z,22.47
2022-08-07T01:07:29.290Z,22.47
2022-08-07T01:10:05.812Z,22.49
2022-08-07T01:12:39.799Z,22.46
2022-08-07T01:15:21.555Z,22.48
2022-08-07T01:17:49.526Z,22.53
2022-08-07T01:20:18.470Z,22.55
2022-08-07T01:22:54.159Z,22.58
2022-08-07T01:25:54.728Z,22.57
2022-08-07T01:28:18.542Z,22.56
2022-08-07T01:30:48.937Z,22.50
2022-08-07T01:33:19.718Z,22.50
2022-08-07T01:35:53.828Z,22.49
2022-08-07T01:38:25.199Z,22.44
2022-08-07T01:40:56.261Z,22.46
2022-08-07T01:43:25.961Z,22.45
2022-08-07T01:45:55.526Z,22.46
2022-08-07T01:48:30.215Z,22.44
2022-08-07T01:51:24.322Z,22.41
2022-08-07T01:54:11.715Z,22.36
2022-08-07T01:56:51.042Z,22.42
2022-08-07T01:59:30.957Z,22.42
2022-08-07T02:02:10.461Z,22.42
2022-08-07T02:04:55.756Z,22.44
2022-08-07T02:07:36.184Z,22.46
2022-08-07T02:10:24.922Z,22.46
2022-08-07T02:12:54.735Z,22.46
2022-08-07T02:15:27.938Z,22.50
2022-08-07T02:17:59.914Z,22.51
2022-08-07T02:20:28.427Z,22.49
2022-08-07T02:23:03.381Z,22.47
2022-08-07T02:26:31.974Z,22.45
2022-08-07T02:28:25.527Z,22.47
2022-08-07T02:31:00.163Z,22.44
2022-08-07T02:34:03.146Z,22.47
2022-08-07T02:36:32.695Z,22.48
2022-08-07T02:39:16.277Z,22.40
2022-08-07T02:41:54.190Z,22.46
2022-08-07T02:44:26.869Z,22.45
2022-08-07T02:47:04.239Z,22.45
2022-08-07T02:49:57.726Z,22.34
2022-08-07T02:52:34.945Z,22.35
2022-08-07T02:55:27.283Z,22.33
2022-08-07T02:58:00.041Z,22.28
2022-08-07T03:00:30.521Z,22.24
2022-08-07T03:02:58.925Z,22.26
2022-08-07T03:05:29.167Z,22.23
2022-08-07T03:08:08.083Z,22.17
2022-08-07T03:10:40.700Z,22.18
2022-08-07T03:13:19.731Z,22.13
2022-08-07T03:15:56.101Z,22.12
2022-08-07T03:18:34.698Z,22.07
2022-08-07T03:21:08.655Z,22.02
2022-08-07T03:24:17.955Z,22.00
2022-08-07T03:26:31.045Z,21.97
2022-08-07T03:29:01.714Z,21.96
2022-08-07T03:31:42.105Z,21.97
2022-08-07T03:34:18.739Z,21.89
2022-08-07T03:36:54.264Z,21.92
2022-08-07T03:39:46.155Z,21.93
2022-08-07T03:42:14.190Z,21.95
2022-08-07T03:44:42.644Z,21.87
2022-08-07T03:47:15.465Z,21.78
2022-08-07T03:49:47.799Z,21.76
2022-08-07T03:52:26.165Z,21.77
2022-08-07T03:55:07.969Z,21.76
2022-08-07T03:59:05.349Z,21.75
2022-08-07T04:00:30.534Z,21.75
2022-08-07T04:03:04.243Z,21.77
2022-08-07T04:05:40.509Z,21.86
2022-08-07T04:08:16.235Z,21.82
2022-08-07T04:10:54.755Z,21.79
2022-08-07T04:14:10.509Z,21.79
2022-08-07T04:16:31.017Z,21.76
2022-08-07T04:19:03.768Z,21.76
2022-08-07T04:21:33.342Z,21.86
2022-08-07T04:24:07.278Z,21.87
2022-08-07T04:26:39.765Z,21.92
2022-08-07T04:29:11.508Z,21.93
2022-08-07T04:32:03.325Z,21.96
2022-08-07T04:34:36.527Z,21.99
2022-08-07T04:37:20.156Z,21.99
2022-08-07T04:39:49.840Z,22.04
2022-08-07T04:42:17.607Z,22.05
2022-08-07T04:44:54.639Z,22.11
2022-08-07T04:47:56.997Z,22.08
2022-08-07T04:50:34.517Z,22.10
2022-08-07T04:54:01.691Z,22.02
2022-08-07T04:58:15.218Z,22.06
2022-08-07T05:00:11.845Z,22.01
2022-08-07T05:02:33.324Z,21.96
2022-08-07T05:05:52.631Z,21.87
2022-08-07T05:08:59.458Z,21.90
2022-08-07T05:11:58.269Z,21.92
2022-08-07T05:14:56.445Z,21.91
2022-08-07T05:17:52.180Z,21.89
2022-08-07T05:20:14.819Z,21.96
2022-08-07T05:22:47.594Z,21.96
2022-08-07T05:25:25.834Z,22.11
2022-08-07T05:28:20.997Z,22.17
2022-08-07T05:30:53.312Z,22.19
2022-08-07T05:33:22.550Z,22.20
2022-08-07T05:35:52.438Z,22.24
2022-08-07T05:39:01.014Z,22.22
2022-08-07T05:41:16.840Z,22.17
2022-08-07T05:44:08.020Z,22.21
2022-08-07T05:46:39.895Z,22.37
2022-08-07T05:49:12.636Z,22.33
2022-08-07T05:51:42.904Z,22.34
2022-08-07T05:54:30.943Z,22.30
2022-08-07T05:57:02.621Z,22.37
2022-08-07T05:59:38.900Z,22.34
2022-08-07T06:02:28.628Z,22.30
2022-08-07T06:05:03.504Z,22.36
2022-08-07T06:08:13.284Z,22.57
2022-08-07T06:10:20.356Z,22.59
2022-08-07T06:12:48.398Z,22.76
2022-08-07T06:15:19.672Z,22.78
2022-08-07T06:17:53.480Z,22.71
2022-08-07T06:20:49.681Z,22.77
2022-08-07T06:23:46.506Z,22.82
2022-08-07T06:26:06.524Z,22.77
2022-08-07T06:28:36.105Z,22.70
2022-08-07T06:31:03.849Z,22.70
2022-08-07T06:33:36.274Z,22.79
2022-08-07T06:36:12.777Z,22.89
2022-08-07T06:38:58.453Z,23.03
2022-08-07T06:42:02.510Z,23.17
2022-08-07T06:44:31.030Z,23.11
2022-08-07T06:47:12.486Z,23.26
2022-08-07T06:49:50.995Z,23.23
2022-08-07T06:52:31.907Z,23.37
2022-08-07T06:55:33.522Z,23.49
2022-08-07T06:58:04.300Z,23.78
2022-08-07T07:00:44.929Z,23.87
2022-08-07T07:03:13.904Z,23.97
2022-08-07T07:06:04.826Z,23.88
2022-08-07T07:08:56.798Z,24.03
2022-08-07T07:12:08.894Z,24.03
2022-08-07T07:14:18.704Z,23.74
2022-08-07T07:16:54.073Z,23.45
2022-08-07T07:19:56.404Z,23.32
2022-08-07T07:26:32.897Z,23.09
2022-08-07T07:28:42.207Z,22.89
2022-08-07T07:31:44.484Z,22.96
2022-08-07T07:34:18.954Z,22.96
2022-08-07T07:36:53.779Z,23.10
2022-08-07T07:39:26.339Z,23.11
2022-08-07T07:42:17.685Z,23.18
2022-08-07T07:44:49.568Z,23.37
2022-08-07T07:47:23.832Z,23.57
2022-08-07T07:50:29.687Z,23.61
2022-08-07T07:52:44.150Z,23.62
2022-08-07T07:55:16.560Z,23.87
2022-08-07T07:57:51.770Z,24.04
2022-08-07T08:00:29.417Z,24.11
2022-08-07T08:03:16.529Z,24.27
2022-08-07T08:05:54.496Z,24.30
2022-08-07T08:08:34.508Z,24.58
2022-08-07T08:11:16.128Z,24.77
2022-08-07T08:13:53.741Z,25.05
2022-08-07T08:16:35.185Z,25.77
2022-08-07T08:19:09.902Z,26.01
2022-08-07T08:22:09.817Z,26.36
2022-08-07T08:25:09.465Z,27.04
2022-08-07T08:27:56.753Z,26.85
2022-08-07T08:30:27.042Z,26.28
2022-08-07T08:32:57.987Z,26.58
2022-08-07T08:35:28.696Z,26.46
2022-08-07T08:38:05.629Z,26.09
2022-08-07T08:40:39.434Z,26.00
2022-08-07T08:43:15.975Z,25.90
2022-08-07T08:45:59.092Z,26.10
2022-08-07T08:48:58.657Z,25.97
2022-08-07T08:52:13.200Z,26.72
2022-08-07T08:55:09.237Z,27.23
2022-08-07T08:58:29.721Z,28.01
2022-08-07T09:01:15.392Z,28.45
2022-08-07T09:03:56.690Z,28.17
2022-08-07T09:06:55.930Z,28.48
2022-08-07T09:09:48.175Z,28.97
2022-08-07T09:12:53.340Z,29.02
2022-08-07T09:16:24.755Z,28.87
2022-08-07T09:18:58.616Z,28.51
2022-08-07T09:21:33.971Z,28.05
2022-08-07T09:24:58.658Z,27.62
2022-08-07T09:28:00.217Z,27.38
2022-08-07T09:30:55.203Z,27.60
2022-08-07T09:33:57.044Z,27.67
2022-08-07T09:37:03.999Z,28.15
2022-08-07T09:39:54.353Z,28.48
2022-08-07T09:42:38.705Z,30.14
2022-08-07T09:47:49.763Z,30.53
2022-08-07T09:48:29.802Z,30.11
2022-08-07T09:52:10.542Z,30.28
2022-08-07T09:54:40.838Z,30.30
2022-08-07T09:57:48.102Z,30.38
2022-08-07T10:00:24.401Z,30.28
2022-08-07T10:04:06.293Z,29.93
2022-08-07T10:06:35.712Z,29.98
2022-08-07T10:09:09.192Z,29.58
2022-08-07T10:12:04.724Z,29.13
2022-08-07T10:15:15.299Z,29.21
2022-08-07T10:18:10.864Z,29.61
2022-08-07T10:21:50.821Z,29.52
2022-08-07T10:24:09.910Z,29.56
2022-08-07T10:26:56.208Z,28.97
2022-08-07T10:29:58.642Z,29.12
2022-08-07T10:32:52.646Z,29.21
2022-08-07T10:35:55.036Z,29.28
2022-08-07T10:38:36.136Z,29.33
2022-08-07T10:41:52.393Z,30.01
2022-08-07T10:44:45.508Z,30.18
2022-08-07T10:47:52.550Z,29.85
2022-08-07T10:50:49.803Z,29.70
2022-08-07T10:53:44.124Z,29.56
2022-08-07T10:56:31.144Z,29.59
2022-08-07T10:59:24.147Z,29.67
2022-08-07T11:02:32.786Z,29.72
2022-08-07T11:05:48.994Z,30.17
2022-08-07T11:08:38.948Z,30.27
2022-08-07T11:11:30.023Z,30.28
2022-08-07T11:14:44.103Z,30.08
2022-08-07T11:17:43.124Z,30.15
2022-08-07T11:20:51.549Z,30.37
2022-08-07T11:23:54.519Z,30.62
2022-08-07T11:26:26.464Z,30.82
2022-08-07T11:29:22.493Z,31.07
2022-08-07T11:32:25.495Z,31.17
2022-08-07T11:35:13.062Z,32.30
2022-08-07T11:38:17.604Z,32.33
2022-08-07T11:41:30.971Z,32.25
2022-08-07T11:44:34.433Z,32.76
2022-08-07T11:47:38.828Z,33.53
2022-08-07T11:50:57.670Z,34.14
2022-08-07T11:53:56.989Z,34.78
2022-08-07T11:57:01.560Z,34.73
2022-08-07T12:00:12.184Z,34.93
2022-08-07T12:03:44.805Z,34.43
2022-08-07T12:06:37.772Z,33.53
2022-08-07T12:09:22.995Z,34.65
2022-08-07T12:12:14.551Z,34.47
2022-08-07T12:15:08.143Z,34.91
2022-08-07T12:18:08.270Z,34.10
2022-08-07T12:21:08.793Z,34.24
2022-08-07T12:24:06.633Z,34.20
2022-08-07T12:26:46.902Z,34.46
2022-08-07T12:29:38.670Z,34.63
2022-08-07T12:32:34.032Z,34.32
2022-08-07T12:35:05.651Z,34.29
2022-08-07T12:38:08.659Z,34.29
2022-08-07T12:40:47.183Z,33.67
2022-08-07T12:44:01.850Z,32.78
2022-08-07T12:46:34.500Z,32.93
2022-08-07T12:49:44.368Z,32.72
2022-08-07T12:52:18.086Z,32.59
2022-08-07T12:55:20.972Z,32.36
2022-08-07T12:58:01.027Z,32.26
2022-08-07T13:00:50.015Z,32.05
2022-08-07T13:03:56.264Z,32.28
2022-08-07T13:07:01.170Z,32.04
2022-08-07T13:10:20.150Z,32.05
2022-08-07T13:12:38.443Z,31.92
2022-08-07T13:15:37.485Z,31.72
2022-08-07T13:18:44.451Z,31.48
2022-08-07T13:21:51.125Z,31.09
2022-08-07T13:24:35.751Z,30.87
2022-08-07T13:28:05.663Z,30.62
2022-08-07T13:30:19.374Z,30.87
2022-08-07T13:34:30.113Z,31.21
2022-08-07T13:36:43.124Z,31.38
2022-08-07T13:39:49.826Z,30.94
2022-08-07T13:42:02.668Z,30.97
2022-08-07T13:44:40.936Z,31.01
2022-08-07T13:47:15.939Z,30.94
2022-08-07T13:50:32.601Z,30.96
2022-08-07T13:52:46.918Z,30.80
2022-08-07T13:55:26.726Z,30.58
2022-08-07T13:58:32.095Z,30.41
2022-08-07T14:01:09.376Z,30.50
2022-08-07T14:04:09.563Z,30.43
2022-08-07T14:06:43.689Z,30.30
2022-08-07T14:10:02.783Z,30.27
2022-08-07T14:12:54.766Z,30.30
2022-08-07T14:15:34.950Z,30.18
2022-08-07T14:18:28.337Z,30.32
2022-08-07T14:21:20.879Z,30.30
2022-08-07T14:24:10.001Z,30.19
2022-08-07T14:28:11.544Z,29.99
2022-08-07T14:30:11.614Z,30.08
2022-08-07T14:32:57.836Z,30.28
2022-08-07T14:35:43.139Z,30.45
2022-08-07T14:38:26.875Z,30.52
2022-08-07T14:46:56.579Z,29.97
2022-08-07T14:49:57.513Z,29.94
2022-08-07T14:52:28.938Z,30.07
2022-08-07T14:55:03.226Z,30.08
2022-08-07T14:57:54.667Z,30.03
2022-08-07T15:00:30.638Z,30.04
2022-08-07T15:03:18.834Z,30.14
2022-08-07T15:05:54.737Z,29.98
2022-08-07T15:08:50.182Z,30.00
2022-08-07T15:11:54.304Z,30.02
2022-08-07T15:14:17.501Z,29.93
2022-08-07T15:16:54.914Z,29.86
2022-08-07T15:20:23.642Z,29.71
2022-08-07T15:25:19.620Z,29.75
2022-08-07T15:28:32.124Z,29.66
2022-08-07T15:31:04.875Z,29.70
2022-08-07T15:33:36.801Z,29.59
2022-08-07T15:36:09.006Z,29.55
2022-08-07T15:38:51.670Z,29.45
2022-08-07T15:42:43.354Z,29.43
2022-08-07T15:47:16.785Z,29.24
2022-08-07T15:50:04.297Z,29.21
2022-08-07T15:52:38.087Z,29.24
2022-08-07T15:55:11.363Z,29.24
2022-08-07T15:57:48.631Z,29.16
2022-08-07T16:00:31.789Z,29.10
2022-08-07T16:03:21.697Z,29.05
2022-08-07T16:06:03.277Z,28.99
2022-08-07T16:08:38.318Z,28.88
2022-08-07T16:11:26.310Z,28.82
2022-08-07T16:14:03.128Z,28.76
2022-08-07T16:16:58.951Z,28.68
2022-08-07T16:19:43.041Z,28.64
2022-08-07T16:23:05.271Z,28.54
2022-08-07T16:25:54.099Z,28.48
2022-08-07T16:30:09.272Z,28.43
2022-08-07T16:32:33.188Z,28.37
2022-08-07T16:35:56.651Z,28.29
2022-08-07T16:39:00.534Z,28.26
2022-08-07T16:41:54.962Z,28.20
2022-08-07T16:44:47.168Z,28.18
2022-08-07T16:47:57.288Z,28.14
2022-08-07T16:51:13.375Z,28.07
2022-08-07T16:54:06.012Z,28.07
2022-08-07T16:57:04.370Z,28.04
2022-08-07T16:59:52.615Z,27.97
2022-08-07T17:02:53.251Z,27.96
2022-08-07T17:06:26.558Z,27.91
2022-08-07T17:09:10.573Z,27.88
2022-08-07T17:12:04.842Z,27.87
2022-08-07T17:14:47.988Z,27.83
2022-08-07T17:17:46.511Z,27.83
2022-08-07T17:20:35.484Z,27.85
2022-08-07T17:23:32.279Z,27.94
2022-08-07T17:26:23.618Z,27.99
2022-08-07T17:30:12.583Z,28.00
2022-08-07T17:32:16.250Z,28.01
2022-08-07T17:35:49.785Z,27.99
2022-08-07T17:38:34.349Z,27.97
2022-08-07T17:41:12.353Z,27.93
2022-08-07T17:44:05.807Z,27.90
2022-08-07T17:46:44.255Z,27.87
2022-08-07T17:49:24.348Z,27.85
2022-08-07T17:52:15.116Z,27.82
2022-08-07T17:54:55.810Z,27.80
2022-08-07T17:57:56.739Z,27.74
2022-08-07T18:00:33.168Z,27.73
2022-08-07T18:03:25.599Z,27.71
2022-08-07T18:06:16.427Z,27.64
2022-08-07T18:09:02.203Z,27.62
2022-08-07T18:12:20.000Z,27.55
2022-08-07T18:15:22.329Z,27.50
2022-08-07T18:18:45.174Z,27.46
2022-08-07T18:21:57.874Z,27.43
2022-08-07T18:25:01.742Z,27.43
2022-08-07T18:27:57.472Z,27.42
2022-08-07T18:30:43.367Z,27.44
2022-08-07T18:33:54.754Z,27.41
2022-08-07T18:36:33.817Z,27.36
2022-08-07T18:40:08.567Z,27.33
2022-08-07T18:42:16.309Z,27.29
2022-08-07T18:45:43.275Z,27.33
2022-08-07T18:50:04.874Z,27.30
2022-08-07T18:52:35.136Z,27.26
2022-08-07T18:54:43.274Z,27.19
2022-08-07T18:57:31.476Z,27.13
2022-08-07T19:00:33.130Z,27.09
2022-08-07T19:03:36.221Z,27.08
2022-08-07T19:06:16.398Z,27.01
2022-08-07T19:08:57.019Z,26.87
2022-08-07T19:12:04.107Z,26.76
2022-08-07T19:14:59.426Z,26.62
2022-08-07T19:18:02.358Z,26.48
2022-08-07T19:21:09.299Z,26.41
2022-08-07T19:23:59.111Z,26.32
2022-08-07T19:27:09.032Z,26.25
2022-08-07T19:30:58.633Z,26.14
2022-08-07T19:32:25.931Z,26.04
2022-08-07T19:35:07.655Z,25.98
2022-08-07T19:37:55.585Z,25.89
2022-08-07T19:40:33.432Z,25.81
2022-08-07T19:43:10.702Z,25.78
2022-08-07T19:46:08.043Z,25.74
2022-08-07T19:48:53.845Z,25.72
2022-08-07T19:51:51.809Z,25.68
2022-08-07T19:54:34.647Z,25.61
2022-08-07T19:58:00.063Z,25.49
2022-08-07T20:00:02.930Z,25.36
2022-08-07T20:02:56.592Z,25.35
2022-08-07T20:05:59.645Z,25.25
2022-08-07T20:08:25.443Z,25.18
2022-08-07T20:11:02.149Z,25.02
2022-08-07T20:13:42.198Z,25.01
2022-08-07T20:16:15.778Z,24.92
2022-08-07T20:19:01.273Z,24.82
2022-08-07T20:21:41.610Z,24.75
2022-08-07T20:24:19.053Z,24.69
2022-08-07T20:26:52.403Z,24.64
2022-08-07T20:29:48.274Z,24.53
2022-08-07T20:32:39.727Z,24.47
2022-08-07T20:35:22.043Z,24.40
2022-08-07T20:37:59.479Z,24.32
2022-08-07T20:40:32.035Z,24.24
2022-08-07T20:43:14.884Z,24.19
2022-08-07T20:46:27.106Z,24.15
2022-08-07T20:49:53.981Z,24.07
2022-08-07T20:51:35.856Z,23.98
2022-08-07T20:54:09.399Z,23.90
2022-08-07T20:56:48.219Z,23.88
2022-08-07T21:00:04.242Z,23.91
2022-08-07T21:02:31.476Z,23.91
2022-08-07T21:05:04.562Z,23.82
2022-08-07T21:07:39.513Z,23.74
2022-08-07T21:10:14.824Z,23.75
2022-08-07T21:12:56.000Z,23.66
2022-08-07T21:15:47.569Z,23.63
2022-08-07T21:18:25.443Z,23.54
2022-08-07T21:20:59.402Z,23.43
2022-08-07T21:23:54.543Z,23.43
2022-08-07T21:26:42.922Z,23.31
2022-08-07T21:29:30.665Z,23.29
2022-08-07T21:32:47.309Z,23.28
2022-08-07T21:36:04.272Z,23.24
2022-08-07T21:38:50.118Z,23.24
2022-08-07T21:41:25.410Z,23.18
2022-08-07T21:44:28.245Z,23.10
2022-08-07T21:47:12.121Z,23.06
2022-08-07T21:50:01.822Z,23.02
2022-08-07T21:52:56.768Z,22.99
2022-08-07T21:55:31.905Z,22.95
2022-08-07T21:58:32.279Z,22.91
2022-08-07T22:02:07.187Z,22.86
2022-08-07T22:04:22.961Z,22.82
2022-08-07T22:07:06.807Z,22.72
2022-08-07T22:09:53.838Z,22.64
2022-08-07T22:12:31.543Z,22.59
2022-08-07T22:16:42.711Z,22.48
2022-08-07T22:18:03.710Z,22.36
2022-08-07T22:20:45.624Z,22.41
2022-08-07T22:23:33.491Z,22.37
2022-08-07T22:26:26.997Z,22.32
2022-08-07T22:29:13.825Z,22.27
2022-08-07T22:32:20.512Z,22.27
2022-08-07T22:34:53.997Z,22.25
2022-08-07T22:38:02.852Z,22.21
2022-08-07T22:41:07.631Z,22.16
2022-08-07T22:43:52.187Z,21.99
2022-08-07T22:47:04.107Z,21.87
2022-08-07T22:49:54.884Z,21.72
2022-08-07T22:52:40.162Z,21.49
2022-08-07T22:55:23.405Z,21.36
2022-08-07T22:58:16.770Z,21.27
2022-08-07T23:00:54.335Z,21.21
2022-08-07T23:03:58.989Z,21.07
2022-08-07T23:06:58.106Z,20.92
2022-08-07T23:10:03.771Z,20.79
2022-08-07T23:12:41.055Z,20.67
2022-08-07T23:16:04.234Z,20.58
2022-08-07T23:18:10.820Z,20.47
2022-08-07T23:20:56.049Z,20.33
2022-08-07T23:24:06.183Z,20.33
2022-08-07T23:27:07.706Z,20.21
2022-08-07T23:30:39.213Z,20.09
2022-08-07T23:34:33.967Z,19.97
2022-08-07T23:37:17.913Z,20.01
2022-08-07T23:39:59.626Z,20.12
2022-08-07T23:42:49.492Z,20.17
2022-08-07T23:46:02.279Z,20.23
2022-08-07T23:48:38.037Z,20.25
2022-08-07T23:53:00.899Z,20.38
2022-08-07T23:54:19.829Z,20.43
2022-08-07T23:57:13.910Z,20.47
